Time;durP1;ratioP1;P1;durP2;ratioP2;P2;SDS_P1;SDS_P2;PMS_P1;PMS_P2;Temp;Humidity;BMP_temperature;BMP_pressure;BME280_temperature;BME280_humidity;BME280_pressure;Samples;Min_cycle;Max_cycle;Signal;HPM_P1;HPM_P2
2021/05/22 00:01:09;;;;;;;5.83;3.08;;;;;;;12.61;63.34;100468.36;1694051;82;22305;-64
2021/05/22 00:03:35;;;;;;;7.47;3.37;;;;;;;12.55;63.36;100467.07;1685071;83;21101;-66
2021/05/22 00:06:02;;;;;;;5.30;2.77;;;;;;;12.50;63.43;100465.81;1708652;82;21093;-68
2021/05/22 00:08:29;;;;;;;5.53;3.20;;;;;;;12.46;63.39;100463.92;1702751;82;21092;-65
2021/05/22 00:10:56;;;;;;;5.35;2.87;;;;;;;12.39;63.45;100468.05;1708106;83;21641;-66
2021/05/22 00:13:23;;;;;;;6.65;3.27;;;;;;;12.34;63.60;100469.78;1707587;82;21195;-65
2021/05/22 00:15:50;;;;;;;7.00;3.22;;;;;;;12.31;63.83;100471.36;1705664;83;21092;-69
2021/05/22 00:18:16;;;;;;;6.05;2.52;;;;;;;12.29;63.94;100470.66;1702155;82;21061;-64
2021/05/22 00:20:42;;;;;;;6.53;3.10;;;;;;;12.32;64.06;100468.23;1685957;83;21120;-65
2021/05/22 00:23:10;;;;;;;5.42;2.77;;;;;;;12.40;63.89;100465.77;1682708;83;21174;-68
2021/05/22 00:25:37;;;;;;;6.25;3.33;;;;;;;12.44;63.87;100461.42;1707326;82;21045;-64
2021/05/22 00:28:04;;;;;;;6.35;3.27;;;;;;;12.48;63.94;100471.71;1679758;83;21115;-68
2021/05/22 00:30:32;;;;;;;6.58;4.00;;;;;;;12.44;63.91;100466.70;1708484;82;21594;-65
2021/05/22 00:32:58;;;;;;;7.22;3.17;;;;;;;12.41;63.86;100473.55;1668610;84;21100;-64
2021/05/22 00:35:25;;;;;;;6.60;3.85;;;;;;;12.37;63.93;100477.44;1709850;82;21124;-64
2021/05/22 00:37:53;;;;;;;8.00;3.83;;;;;;;12.32;64.53;100478.78;1702667;82;21084;-71
2021/05/22 00:40:20;;;;;;;5.85;3.22;;;;;;;12.31;64.83;100479.77;1700882;83;21056;-64
2021/05/22 00:42:47;;;;;;;6.03;3.42;;;;;;;12.30;65.06;100474.95;1702525;82;21025;-68
2021/05/22 00:45:20;;;;;;;6.65;2.90;;;;;;;12.26;65.04;100482.80;1688718;83;21161;-66
2021/05/22 00:47:52;;;;;;;4.97;2.77;;;;;;;12.23;64.98;100473.33;1707200;82;21835;-64
2021/05/22 00:50:29;;;;;;;6.95;3.58;;;;;;;12.24;64.90;100476.81;1712670;82;21152;-66
2021/05/22 00:52:55;;;;;;;;;;;;;;;12.28;64.84;100476.06;1702627;82;21057;-66
2021/05/22 00:55:23;;;;;;;5.90;3.08;;;;;;;12.33;64.93;100478.66;1707311;82;20292;-64
2021/05/22 00:57:50;;;;;;;5.87;3.47;;;;;;;12.31;64.79;100474.49;1714158;82;21128;-66
2021/05/22 01:00:19;;;;;;;7.15;3.60;;;;;;;12.30;64.72;100477.59;1715139;82;21068;-67
2021/05/22 01:02:48;;;;;;;7.25;3.22;;;;;;;12.30;64.60;100478.08;1705403;83;21673;-66
2021/05/22 01:05:14;;;;;;;6.08;3.22;;;;;;;12.24;64.30;100470.22;1666196;85;21576;-65
2021/05/22 01:07:44;;;;;;;5.72;3.08;;;;;;;12.19;64.26;100475.06;1678773;83;21045;-64
2021/05/22 01:10:10;;;;;;;6.83;3.12;;;;;;;12.12;64.20;100476.52;1646670;84;21121;-65
2021/05/22 01:12:39;;;;;;;6.55;3.02;;;;;;;12.04;64.30;100473.23;1694518;82;21127;-65
2021/05/22 01:15:12;;;;;;;5.25;3.00;;;;;;;11.97;64.36;100471.60;1651666;84;21671;-65
2021/05/22 01:17:42;;;;;;;7.60;4.03;;;;;;;11.89;64.37;100472.20;1696388;82;21080;-68
2021/05/22 01:20:26;;;;;;;5.67;2.90;;;;;;;11.85;64.75;100472.58;1664575;84;21057;-66
2021/05/22 01:22:56;;;;;;;7.30;3.33;;;;;;;11.81;64.99;100479.09;1691450;82;21053;-65
2021/05/22 01:25:39;;;;;;;5.53;2.85;;;;;;;11.81;65.19;100474.64;1670602;84;21087;-67
2021/05/22 01:28:07;;;;;;;5.22;2.52;;;;;;;11.88;65.19;100481.09;1698510;82;21101;-67
2021/05/22 01:30:34;;;;;;;5.70;2.92;;;;;;;11.93;65.23;100485.99;1692379;82;21124;-65
2021/05/22 01:33:01;;;;;;;6.50;3.42;;;;;;;11.97;65.20;100480.83;1692995;82;21081;-68
2021/05/22 01:35:28;;;;;;;5.72;3.40;;;;;;;11.94;64.96;100481.58;1675560;82;21133;-64
2021/05/22 01:37:54;;;;;;;6.30;3.40;;;;;;;11.90;64.90;100492.81;1692895;82;22310;-65
2021/05/22 01:40:21;;;;;;;6.75;3.85;;;;;;;11.84;65.07;100496.80;1695814;82;21137;-68
2021/05/22 01:42:48;;;;;;;6.60;3.02;;;;;;;11.83;65.05;100496.44;1691981;82;21123;-65
2021/05/22 01:45:17;;;;;;;10.30;3.67;;;;;;;11.80;65.12;100498.04;1697233;83;21093;-64
2021/05/22 01:47:44;;;;;;;7.08;3.27;;;;;;;11.76;65.10;100501.05;1679149;83;21124;-67
2021/05/22 01:50:11;;;;;;;6.15;3.20;;;;;;;11.73;65.17;100501.30;1672556;83;21654;-68
2021/05/22 01:52:41;;;;;;;5.42;2.85;;;;;;;11.67;65.23;100499.53;1676254;83;21093;-65
2021/05/22 01:55:10;;;;;;;9.48;2.85;;;;;;;11.67;65.29;100502.16;1683906;82;21387;-65
2021/05/22 01:57:37;;;;;;;5.70;3.08;;;;;;;11.73;65.41;100503.94;1691654;82;21101;-64
2021/05/22 02:00:07;;;;;;;7.45;3.50;;;;;;;11.79;65.47;100500.80;1693159;82;21124;-64
2021/05/22 02:02:50;;;;;;;6.37;3.20;;;;;;;11.82;65.31;100502.69;1695307;82;21332;-65
2021/05/22 02:05:16;;;;;;;6.72;3.58;;;;;;;11.82;65.23;100504.50;1681319;83;21096;-64
2021/05/22 02:07:43;;;;;;;5.78;2.92;;;;;;;11.79;65.20;100498.16;1713711;81;21099;-66
2021/05/22 02:10:10;;;;;;;6.62;3.58;;;;;;;11.75;65.23;100500.69;1716123;83;21081;-65
2021/05/22 02:12:37;;;;;;;8.28;3.83;;;;;;;11.69;65.37;100506.00;1717833;83;21123;-64
2021/05/22 02:15:05;;;;;;;7.50;3.72;;;;;;;11.66;65.49;100512.34;1688761;83;21108;-65
2021/05/22 02:17:31;;;;;;;7.47;4.10;;;;;;;11.62;65.42;100502.20;1714681;83;21056;-66
2021/05/22 02:19:57;;;;;;;7.62;3.92;;;;;;;11.56;65.52;100503.52;1684434;83;21103;-65
2021/05/22 02:22:24;;;;;;;6.90;3.98;;;;;;;11.57;65.54;100513.11;1693977;83;21131;-65
2021/05/22 02:24:51;;;;;;;6.25;3.40;;;;;;;11.65;65.50;100507.19;1716147;81;21063;-64
2021/05/22 02:27:17;;;;;;;9.28;4.97;;;;;;;11.71;65.51;100507.52;1685347;81;21133;-65
2021/05/22 02:29:44;;;;;;;8.58;4.67;;;;;;;11.76;65.33;100513.73;1714453;81;21071;-66
2021/05/22 02:32:12;;;;;;;8.63;4.85;;;;;;;11.76;65.32;100515.06;1720812;81;21104;-65
2021/05/22 02:34:52;;;;;;;7.95;4.72;;;;;;;11.77;65.35;100513.25;1716778;81;21100;-64
2021/05/22 02:37:20;;;;;;;8.98;4.83;;;;;;;11.77;65.32;100515.88;1693296;83;21553;-71
2021/05/22 02:39:50;;;;;;;9.40;4.92;;;;;;;11.74;65.40;100522.75;1718401;81;21117;-65
2021/05/22 02:42:17;;;;;;;7.12;4.17;;;;;;;11.70;65.51;100521.69;1696078;81;21122;-65
2021/05/22 02:44:48;;;;;;;9.28;4.22;;;;;;;11.67;65.66;100523.25;1694341;83;21101;-66
2021/05/22 02:47:15;;;;;;;8.20;3.40;;;;;;;11.66;65.73;100528.65;1692137;83;21963;-67
2021/05/22 02:49:42;;;;;;;7.03;3.87;;;;;;;11.62;65.72;100537.30;1715748;81;21064;-65
2021/05/22 02:52:16;;;;;;;5.85;3.55;;;;;;;11.63;65.87;100539.44;1694110;83;21130;-65
2021/05/22 02:54:43;;;;;;;5.55;3.30;;;;;;;11.71;65.79;100539.64;1716342;81;21102;-69
2021/05/22 02:57:10;;;;;;;6.67;3.60;;;;;;;11.79;65.72;100540.34;1696785;81;21053;-65
2021/05/22 02:59:39;;;;;;;7.22;3.52;;;;;;;11.86;65.69;100541.50;1695662;83;21510;-64
2021/05/22 03:02:05;;;;;;;7.00;3.60;;;;;;;11.89;65.74;100542.08;1721515;83;21546;-67
2021/05/22 03:04:33;;;;;;;7.22;3.72;;;;;;;11.92;65.81;100548.09;1711343;83;21879;-67
2021/05/22 03:07:01;;;;;;;7.65;3.92;;;;;;;11.93;65.85;100557.19;1677433;83;21122;-65
2021/05/22 03:09:28;;;;;;;6.70;3.27;;;;;;;11.96;65.83;100557.44;1699712;83;21109;-64
2021/05/22 03:11:55;;;;;;;5.50;2.70;;;;;;;11.98;65.79;100562.09;1703831;82;21555;-65
2021/05/22 03:14:22;;;;;;;4.87;2.40;;;;;;;11.99;65.81;100565.92;1704191;82;21086;-66
2021/05/22 03:16:48;;;;;;;5.80;2.60;;;;;;;11.97;65.65;100562.58;1699354;82;22336;-65
2021/05/22 03:19:15;;;;;;;5.53;2.65;;;;;;;12.02;65.62;100564.81;1672479;83;21056;-65
2021/05/22 03:21:41;;;;;;;4.95;2.42;;;;;;;12.13;65.40;100572.67;1680626;82;21080;-66
2021/05/22 03:24:09;;;;;;;5.55;2.65;;;;;;;12.24;64.96;100574.43;1697932;83;21129;-65
2021/05/22 03:26:36;;;;;;;5.80;2.95;;;;;;;12.32;64.83;100576.41;1701804;83;21111;-65
2021/05/22 03:29:03;;;;;;;5.42;2.75;;;;;;;12.36;64.93;100578.66;1686783;82;21853;-65
2021/05/22 03:31:29;;;;;;;6.42;3.17;;;;;;;12.39;65.02;100574.91;1705175;82;21064;-65
2021/05/22 03:33:56;;;;;;;5.10;2.45;;;;;;;12.43;64.79;100582.94;1678064;82;21557;-65
2021/05/22 03:36:23;;;;;;;5.03;2.35;;;;;;;12.44;64.62;100578.03;1702800;82;21090;-64
2021/05/22 03:38:49;;;;;;;6.83;2.70;;;;;;;12.48;64.79;100579.92;1698457;83;21069;-70
2021/05/22 03:41:16;;;;;;;6.90;3.05;;;;;;;12.55;64.79;100581.06;1710799;82;22737;-68
2021/05/22 03:43:43;;;;;;;5.60;2.65;;;;;;;12.58;64.75;100578.17;1696382;83;21116;-66
2021/05/22 03:46:10;;;;;;;7.87;2.62;;;;;;;12.70;64.43;100577.59;1704582;83;21064;-65
2021/05/22 03:48:36;;;;;;;6.00;2.83;;;;;;;12.85;64.08;100577.59;1707044;82;21585;-65
2021/05/22 03:51:03;;;;;;;8.75;3.20;;;;;;;13.00;63.75;100579.39;1711231;83;21047;-66
2021/05/22 03:53:30;;;;;;;4.87;2.60;;;;;;;13.13;63.69;100587.91;1708582;82;21089;-71
2021/05/22 03:55:57;;;;;;;6.20;2.42;;;;;;;13.24;63.25;100582.99;1676600;82;21632;-66
2021/05/22 03:58:24;;;;;;;5.33;2.87;;;;;;;13.34;63.12;100578.59;1698528;82;21048;-67
2021/05/22 04:00:50;;;;;;;5.45;2.83;;;;;;;13.45;62.94;100582.95;1710325;83;21330;-65
2021/05/22 04:03:16;;;;;;;7.28;3.17;;;;;;;13.51;62.79;100577.09;1702976;83;21033;-68
2021/05/22 04:05:44;;;;;;;5.30;2.75;;;;;;;13.60;62.39;100580.74;1699998;82;21113;-68
2021/05/22 04:08:11;;;;;;;5.67;3.02;;;;;;;13.66;61.91;100582.81;1700924;83;21163;-64
2021/05/22 04:10:38;;;;;;;5.53;2.95;;;;;;;13.69;61.99;100581.72;1690109;82;21441;-68
2021/05/22 04:13:04;;;;;;;7.25;3.67;;;;;;;13.71;61.91;100581.09;1694894;84;21048;-64
2021/05/22 04:15:31;;;;;;;6.75;2.87;;;;;;;13.71;62.17;100585.87;1692454;82;21135;-69
2021/05/22 04:20:45;;;;;;;8.55;3.05;;;;;;;13.97;62.09;100591.11;1767791;79;23367;-66
2021/05/22 04:23:13;;;;;;;5.05;2.45;;;;;;;14.00;62.29;100600.92;1734625;80;21179;-71
2021/05/22 04:25:40;;;;;;;5.05;2.60;;;;;;;14.12;61.88;100604.25;1729054;82;21756;-68
2021/05/22 04:28:06;;;;;;;7.85;3.98;;;;;;;14.18;61.78;100603.70;1736952;80;21198;-69
2021/05/22 04:30:33;;;;;;;6.92;4.60;;;;;;;14.23;61.78;100601.47;1736761;82;21193;-68
2021/05/22 04:32:59;;;;;;;6.65;3.40;;;;;;;14.28;61.59;100603.70;1726474;81;21048;-68
2021/05/22 04:35:25;;;;;;;6.17;3.52;;;;;;;14.35;61.60;100603.97;1726155;80;21108;-69
2021/05/22 04:37:54;;;;;;;5.67;2.85;;;;;;;14.43;61.47;100612.03;1723253;80;21028;-73
2021/05/22 04:40:21;;;;;;;6.08;2.83;;;;;;;14.52;61.40;100607.19;1738908;80;21001;-69
2021/05/22 04:42:48;;;;;;;6.17;2.90;;;;;;;14.58;60.95;100609.28;1735825;80;21053;-67
2021/05/22 04:45:15;;;;;;;6.03;2.92;;;;;;;14.62;60.83;100602.73;1738531;80;21140;-68
2021/05/22 04:47:44;;;;;;;5.47;2.83;;;;;;;14.66;60.75;100602.81;1730618;80;21132;-70
2021/05/22 04:50:11;;;;;;;6.20;2.60;;;;;;;14.76;61.03;100599.28;1708169;82;21124;-68
2021/05/22 04:52:39;;;;;;;5.33;2.72;;;;;;;14.89;60.60;100596.31;1740406;80;21211;-69
2021/05/22 04:55:06;;;;;;;6.80;2.67;;;;;;;15.07;59.98;100595.06;1733381;80;21271;-71
2021/05/22 04:57:33;;;;;;;5.30;2.50;;;;;;;15.23;59.49;100594.77;1737411;80;21712;-66
2021/05/22 04:59:59;;;;;;;5.55;2.50;;;;;;;15.37;59.15;100608.50;1726560;82;21060;-67
2021/05/22 05:02:26;;;;;;;5.53;2.72;;;;;;;15.47;58.96;100603.14;1700196;83;22348;-68
2021/05/22 05:04:52;;;;;;;5.78;2.33;;;;;;;15.56;58.50;100602.23;1680108;83;21091;-71
2021/05/22 05:07:18;;;;;;;4.35;2.20;;;;;;;15.65;58.15;100605.80;1680388;83;21316;-69
2021/05/22 05:09:46;;;;;;;5.03;2.42;;;;;;;15.74;57.81;100607.06;1679781;83;21084;-69
2021/05/22 05:12:13;;;;;;;4.35;2.00;;;;;;;15.84;57.39;100600.89;1704694;82;21096;-69
2021/05/22 05:14:40;;;;;;;4.92;2.02;;;;;;;15.92;56.76;100606.24;1680456;82;21146;-70
2021/05/22 05:17:06;;;;;;;5.20;2.05;;;;;;;16.01;55.49;100603.20;1705112;82;21128;-71
2021/05/22 05:19:33;;;;;;;5.28;1.70;;;;;;;16.11;55.80;100610.08;1692553;82;21383;-72
2021/05/22 05:22:01;;;;;;;5.83;1.80;;;;;;;16.19;52.70;100611.97;1691913;82;21077;-68
2021/05/22 05:24:28;;;;;;;3.65;1.47;;;;;;;16.27;52.67;100612.04;1691899;82;21082;-68
2021/05/22 05:26:54;;;;;;;3.80;1.50;;;;;;;16.34;51.94;100613.08;1690660;82;21744;-71
2021/05/22 05:29:20;;;;;;;3.33;1.35;;;;;;;16.42;52.09;100616.27;1667432;83;21008;-72
2021/05/22 05:31:47;;;;;;;4.67;1.42;;;;;;;16.50;50.89;100621.64;1691005;82;20933;-73
2021/05/22 05:34:13;;;;;;;5.00;1.65;;;;;;;16.56;50.99;100617.55;1698099;82;21556;-70
2021/05/22 05:36:39;;;;;;;5.58;1.75;;;;;;;16.66;50.83;100609.45;1696937;82;20961;-71
2021/05/22 05:39:07;;;;;;;6.72;1.45;;;;;;;16.75;50.94;100608.52;1700344;82;21983;-71
2021/05/22 05:41:33;;;;;;;3.72;1.15;;;;;;;16.85;50.63;100609.27;1694634;82;20982;-70
2021/05/22 05:44:00;;;;;;;4.67;1.75;;;;;;;16.96;50.96;100612.12;1696200;82;20953;-70
2021/05/22 05:46:28;;;;;;;4.40;1.27;;;;;;;17.11;50.41;100609.70;1698479;82;21124;-70
2021/05/22 05:48:55;;;;;;;4.40;1.77;;;;;;;17.22;48.97;100612.09;1694912;82;21108;-70
2021/05/22 05:51:21;;;;;;;2.60;1.00;;;;;;;17.31;48.71;100612.12;1694965;82;21090;-73
2021/05/22 05:53:48;;;;;;;4.08;1.70;;;;;;;17.42;49.17;100614.49;1680235;84;20984;-72
2021/05/22 05:56:14;;;;;;;5.33;1.27;;;;;;;17.54;48.15;100617.17;1678149;84;21740;-68
2021/05/22 05:58:41;;;;;;;4.37;1.40;;;;;;;17.64;48.19;100616.53;1679055;83;21040;-68
2021/05/22 06:01:08;;;;;;;3.45;1.50;;;;;;;17.75;48.12;100618.53;1688570;82;21010;-68
2021/05/22 06:03:34;;;;;;;6.20;1.30;;;;;;;17.86;48.13;100622.22;1674633;82;20978;-69
2021/05/22 06:06:01;;;;;;;4.10;1.37;;;;;;;18.00;48.67;100627.42;1688492;83;20945;-71
2021/05/22 06:08:28;;;;;;;3.90;1.37;;;;;;;18.16;47.49;100625.27;1663418;84;21211;-71
2021/05/22 06:10:54;;;;;;;2.83;1.10;;;;;;;18.29;46.55;100630.08;1693850;82;21140;-68
2021/05/22 06:13:32;;;;;;;4.72;1.05;;;;;;;18.43;46.15;100632.59;1694270;82;21136;-69
2021/05/22 06:16:03;;;;;;;2.77;1.00;;;;;;;18.53;45.38;100630.58;1696325;82;21631;-71
2021/05/22 06:18:33;;;;;;;2.67;1.00;;;;;;;18.64;44.46;100634.20;1675691;82;20985;-69
2021/05/22 06:21:01;;;;;;;4.45;1.05;;;;;;;18.72;44.09;100632.03;1710098;82;21647;-70
2021/05/22 06:23:27;;;;;;;3.77;1.55;;;;;;;18.78;43.13;100632.69;1687083;82;21712;-70
2021/05/22 06:25:54;;;;;;;2.42;1.02;;;;;;;18.82;43.01;100632.66;1682976;82;21198;-72
2021/05/22 06:28:20;;;;;;;3.58;1.17;;;;;;;18.84;43.67;100630.69;1713924;82;21080;-69
2021/05/22 06:30:47;;;;;;;3.25;1.20;;;;;;;18.89;43.30;100627.52;1685048;82;21433;-70
2021/05/22 06:33:14;;;;;;;3.12;1.32;;;;;;;18.93;42.94;100626.19;1684298;82;21096;-69
2021/05/22 06:35:41;;;;;;;3.27;1.00;;;;;;;18.97;42.90;100634.16;1689495;82;21092;-69
2021/05/22 06:38:09;;;;;;;3.08;1.20;;;;;;;19.02;42.82;100636.31;1713977;82;21108;-72
2021/05/22 06:40:36;;;;;;;3.52;1.00;;;;;;;19.08;42.62;100645.80;1702796;82;21124;-72
2021/05/22 06:43:02;;;;;;;4.75;1.15;;;;;;;19.13;42.51;100643.92;1683199;82;21117;-70
2021/05/22 06:45:39;;;;;;;2.33;0.72;;;;;;;19.17;42.51;100643.10;1713247;82;21741;-70
2021/05/22 06:47:57;;;;;;;2.87;1.02;;;;;;;19.22;42.51;100642.91;1679184;82;21637;-71
2021/05/22 06:50:24;;;;;;;3.67;1.20;;;;;;;19.25;41.83;100645.73;1714184;82;22034;-69
2021/05/22 06:52:50;;;;;;;2.83;1.17;;;;;;;19.27;41.82;100643.21;1675852;82;22119;-71
2021/05/22 06:55:18;;;;;;;4.33;1.35;;;;;;;19.33;41.78;100648.86;1682892;82;21084;-71
2021/05/22 06:57:45;;;;;;;3.15;1.00;;;;;;;19.38;41.44;100648.66;1711366;82;22330;-69
2021/05/22 07:00:14;;;;;;;3.12;0.85;;;;;;;19.43;41.18;100651.66;1704367;82;21080;-69
2021/05/22 07:02:40;;;;;;;2.55;0.95;;;;;;;19.47;41.00;100650.80;1710897;82;21063;-70
2021/05/22 07:05:08;;;;;;;5.40;1.20;;;;;;;19.53;41.43;100655.94;1706354;82;21120;-73
2021/05/22 07:07:36;;;;;;;1.75;0.62;;;;;;;19.56;41.84;100653.74;1711432;82;21139;-74
2021/05/22 07:10:03;;;;;;;3.98;1.02;;;;;;;19.60;41.22;100651.55;1704678;82;21387;-71
2021/05/22 07:12:30;;;;;;;3.85;0.98;;;;;;;19.63;41.45;100645.35;1711446;82;21191;-72
2021/05/22 07:14:57;;;;;;;5.05;0.82;;;;;;;19.67;40.86;100643.19;1706795;82;21637;-70
2021/05/22 07:17:23;;;;;;;3.27;1.30;;;;;;;19.72;40.30;100644.83;1706666;82;21100;-68
2021/05/22 07:19:49;;;;;;;5.20;0.95;;;;;;;19.74;40.49;100646.81;1671358;83;22659;-70
2021/05/22 07:22:16;;;;;;;2.98;1.20;;;;;;;19.77;39.92;100649.16;1689287;82;21682;-69
2021/05/22 07:24:43;;;;;;;4.37;0.90;;;;;;;19.79;39.69;100641.80;1669568;83;21085;-70
2021/05/22 07:27:09;;;;;;;3.77;0.90;;;;;;;19.82;39.69;100636.11;1697875;82;21635;-70
2021/05/22 07:29:36;;;;;;;3.75;1.05;;;;;;;19.89;38.97;100642.91;1675332;84;21842;-68
2021/05/22 07:32:03;;;;;;;3.25;1.00;;;;;;;19.95;37.77;100644.84;1690769;82;21084;-68
2021/05/22 07:34:31;;;;;;;3.55;1.02;;;;;;;20.00;37.02;100641.66;1697136;83;21045;-68
2021/05/22 07:36:58;;;;;;;7.03;1.80;;;;;;;20.02;37.64;100635.14;1694499;82;22320;-72
2021/05/22 07:39:24;;;;;;;5.12;1.32;;;;;;;20.06;38.25;100636.13;1691575;84;21077;-67
2021/05/22 07:41:51;;;;;;;3.62;1.17;;;;;;;20.09;38.32;100631.25;1689587;83;22330;-67
2021/05/22 07:44:17;;;;;;;2.87;0.85;;;;;;;20.14;37.42;100634.20;1691229;83;21124;-67
2021/05/22 07:46:44;;;;;;;3.15;1.00;;;;;;;20.21;37.67;100631.65;1683468;84;21097;-68
2021/05/22 07:49:10;;;;;;;2.80;0.80;;;;;;;20.28;37.50;100624.56;1690786;83;21190;-70
2021/05/22 07:51:43;;;;;;;3.30;1.17;;;;;;;20.34;37.24;100627.01;1694451;82;21148;-67
2021/05/22 07:54:07;;;;;;;2.75;0.95;;;;;;;20.40;37.94;100627.63;1694609;82;22664;-67
2021/05/22 07:56:34;;;;;;;1.70;0.70;;;;;;;20.49;38.04;100626.52;1674786;83;21561;-68
2021/05/22 07:59:01;;;;;;;2.77;0.60;;;;;;;20.56;37.79;100618.61;1678491;83;21120;-68
2021/05/22 08:01:28;;;;;;;2.45;0.80;;;;;;;20.64;37.26;100623.09;1695880;82;21065;-69
2021/05/22 08:03:55;;;;;;;2.33;0.90;;;;;;;20.69;36.69;100619.35;1688230;82;22613;-69
2021/05/22 08:06:21;;;;;;;2.95;0.80;;;;;;;20.73;37.15;100613.47;1696301;82;21188;-68
2021/05/22 08:08:48;;;;;;;2.30;0.98;;;;;;;20.81;36.99;100610.37;1698810;82;22642;-69
2021/05/22 08:11:14;;;;;;;2.70;0.72;;;;;;;20.89;36.67;100608.94;1672323;83;21112;-70
2021/05/22 08:13:41;;;;;;;3.22;0.98;;;;;;;20.96;35.96;100601.34;1678421;83;21646;-67
2021/05/22 08:16:08;;;;;;;3.20;0.80;;;;;;;21.04;35.90;100605.74;1694696;82;21101;-67
2021/05/22 08:18:37;;;;;;;8.60;0.90;;;;;;;21.09;35.69;100610.54;1689575;82;21089;-69
2021/05/22 08:21:05;;;;;;;2.95;0.88;;;;;;;21.13;36.55;100595.77;1694198;83;21105;-69
2021/05/22 08:23:31;;;;;;;2.33;0.98;;;;;;;21.22;36.23;100601.34;1697233;82;21175;-70
2021/05/22 08:25:58;;;;;;;5.80;1.35;;;;;;;21.32;35.75;100592.50;1699471;82;21534;-71
2021/05/22 08:28:27;;;;;;;2.20;0.70;;;;;;;21.43;36.09;100591.17;1700066;82;21139;-67
2021/05/22 08:30:53;;;;;;;4.17;1.10;;;;;;;21.54;33.07;100601.94;1699185;82;21156;-66
2021/05/22 08:33:20;;;;;;;2.55;0.80;;;;;;;21.65;33.50;100595.25;1698402;82;21092;-67
2021/05/22 08:35:48;;;;;;;1.47;0.62;;;;;;;21.74;33.70;100590.59;1697632;82;21095;-66
2021/05/22 08:38:16;;;;;;;2.37;0.90;;;;;;;21.79;33.84;100589.02;1699664;82;21146;-68
2021/05/22 08:40:42;;;;;;;3.42;0.78;;;;;;;21.84;33.30;100591.12;1671993;83;21176;-71
2021/05/22 08:43:09;;;;;;;5.58;1.12;;;;;;;21.93;33.05;100595.31;1698508;82;21169;-68
2021/05/22 08:45:36;;;;;;;2.15;0.93;;;;;;;22.04;32.97;100593.46;1696338;82;21181;-68
2021/05/22 08:48:03;;;;;;;3.52;0.85;;;;;;;22.13;32.60;100591.47;1691755;82;21488;-69
2021/05/22 08:50:29;;;;;;;2.47;0.80;;;;;;;22.17;31.47;100585.20;1695628;82;21001;-66
2021/05/22 08:52:56;;;;;;;7.12;1.10;;;;;;;22.17;32.91;100579.84;1700179;82;21001;-69
2021/05/22 08:55:23;;;;;;;2.17;0.70;;;;;;;22.16;31.82;100574.19;1692197;83;21434;-71
2021/05/22 08:57:50;;;;;;;4.10;1.50;;;;;;;22.13;32.24;100578.59;1697403;82;21104;-69
2021/05/22 09:00:19;;;;;;;4.65;0.93;;;;;;;22.13;32.45;100569.20;1701960;82;21116;-67
2021/05/22 09:02:46;;;;;;;3.60;0.98;;;;;;;22.18;33.39;100569.45;1698497;82;21124;-68
2021/05/22 09:05:21;;;;;;;3.60;1.00;;;;;;;22.26;32.43;100559.93;1698524;82;21370;-69
2021/05/22 09:07:51;;;;;;;5.50;1.20;;;;;;;22.34;33.08;100561.16;1692252;82;21111;-70
2021/05/22 09:10:23;;;;;;;2.58;0.70;;;;;;;22.43;33.14;100557.28;1701569;82;21058;-67
2021/05/22 09:12:56;;;;;;;5.60;0.93;;;;;;;22.53;32.27;100553.44;1662422;84;21124;-68
2021/05/22 09:15:26;;;;;;;4.40;0.65;;;;;;;22.56;32.30;100553.02;1695278;82;21060;-66
2021/05/22 09:17:58;;;;;;;3.25;1.35;;;;;;;22.60;32.52;100558.31;1642807;85;21119;-68
2021/05/22 09:20:34;;;;;;;4.78;1.00;;;;;;;22.61;31.95;100563.48;1668223;83;21124;-69
2021/05/22 09:23:11;;;;;;;3.20;0.90;;;;;;;22.59;33.20;100552.63;1699946;82;21111;-68
2021/05/22 09:25:55;;;;;;;2.87;0.90;;;;;;;22.67;33.58;100552.47;1694529;82;22381;-68
2021/05/22 09:28:24;;;;;;;2.80;0.90;;;;;;;22.80;32.09;100547.17;1681286;83;21110;-68
2021/05/22 09:30:52;;;;;;;2.75;0.80;;;;;;;22.91;30.84;100544.41;1678158;83;21084;-68
2021/05/22 09:33:25;;;;;;;4.35;0.90;;;;;;;22.97;31.62;100546.83;1676229;83;21101;-68
2021/05/22 09:36:04;;;;;;;4.67;0.80;;;;;;;23.00;31.56;100547.25;1670718;83;21128;-70
2021/05/22 09:38:46;;;;;;;2.62;0.65;;;;;;;23.04;31.98;100546.33;1678556;83;20973;-67
2021/05/22 09:41:30;;;;;;;5.75;0.70;;;;;;;23.04;31.27;100537.47;1700807;82;21109;-69
2021/05/22 09:44:15;;;;;;;3.67;1.25;;;;;;;23.04;31.09;100545.52;1674014;83;21124;-68
2021/05/22 09:46:50;;;;;;;4.47;1.50;;;;;;;22.99;30.65;100536.20;1672846;83;21646;-69
2021/05/22 09:49:28;;;;;;;2.05;0.70;;;;;;;22.95;30.82;100530.11;1692760;84;21682;-68
2021/05/22 09:52:12;;;;;;;6.28;1.20;;;;;;;22.86;31.01;100531.30;1691684;82;21185;-67
2021/05/22 09:54:51;;;;;;;2.62;1.00;;;;;;;22.79;31.84;100523.22;1700327;83;20985;-70
2021/05/22 09:57:38;;;;;;;2.52;0.75;;;;;;;22.82;30.89;100526.84;1693070;82;21044;-69
2021/05/22 10:00:16;;;;;;;5.12;1.17;;;;;;;22.84;30.55;100521.28;1692526;82;21123;-69
2021/05/22 10:02:51;;;;;;;2.52;0.80;;;;;;;22.81;30.78;100520.67;1701340;82;21137;-70
2021/05/22 10:05:25;;;;;;;4.45;0.70;;;;;;;22.78;31.46;100520.24;1698137;82;25972;-73
2021/05/22 10:07:54;;;;;;;2.65;0.75;;;;;;;22.75;31.64;100520.11;1696402;84;21101;-74
2021/05/22 10:10:22;;;;;;;2.00;0.60;;;;;;;22.72;30.51;100512.46;1692424;82;21100;-70
2021/05/22 10:12:49;;;;;;;6.67;0.90;;;;;;;22.75;30.87;100513.94;1687541;83;21665;-72
2021/05/22 10:15:17;;;;;;;3.08;1.05;;;;;;;22.77;30.58;100519.39;1692503;82;21065;-69
2021/05/22 10:17:45;;;;;;;4.20;1.30;;;;;;;22.75;30.88;100504.02;1694694;84;21088;-71
2021/05/22 10:20:14;;;;;;;6.28;0.90;;;;;;;22.77;30.05;100502.48;1676119;83;21196;-71
2021/05/22 10:22:42;;;;;;;2.72;0.80;;;;;;;22.79;30.84;100498.55;1648879;83;21644;-72
2021/05/22 10:25:09;;;;;;;2.87;0.95;;;;;;;22.85;31.27;100502.80;1668974;84;22318;-69
2021/05/22 10:27:36;;;;;;;6.15;1.22;;;;;;;22.95;32.22;100497.39;1667910;84;21088;-68
2021/05/22 10:30:05;;;;;;;2.22;0.75;;;;;;;23.09;31.91;100486.20;1670060;84;21075;-67
2021/05/22 10:32:32;;;;;;;3.42;0.93;;;;;;;23.23;31.37;100487.58;1636938;85;21175;-68
2021/05/22 10:35:15;;;;;;;2.80;0.80;;;;;;;23.35;31.39;100482.75;1637032;84;21107;-70
2021/05/22 10:37:48;;;;;;;4.62;0.80;;;;;;;23.45;30.77;100482.36;1659162;84;21826;-68
2021/05/22 10:40:40;;;;;;;2.12;0.72;;;;;;;23.52;31.23;100475.13;1663307;84;21675;-67
2021/05/22 10:43:06;;;;;;;5.05;0.82;;;;;;;23.57;29.54;100465.11;1664589;84;21072;-68
2021/05/22 10:45:38;;;;;;;3.20;0.88;;;;;;;23.59;29.79;100456.81;1665199;84;21649;-69
2021/05/22 10:48:08;;;;;;;5.25;0.98;;;;;;;23.65;29.87;100460.84;1658128;84;21486;-66
2021/05/22 10:50:43;;;;;;;4.25;1.10;;;;;;;23.69;30.57;100461.28;1621984;86;21659;-67
2021/05/22 10:53:30;;;;;;;3.47;0.93;;;;;;;23.71;30.34;100449.81;1665709;84;21115;-70
2021/05/22 10:56:15;;;;;;;4.22;0.90;;;;;;;23.74;30.80;100447.53;1675458;84;21131;-68
2021/05/22 10:59:09;;;;;;;2.42;0.82;;;;;;;23.82;31.25;100447.03;1642106;84;21552;-69
2021/05/22 11:01:40;;;;;;;3.37;1.23;;;;;;;24.03;30.87;100432.01;1641617;84;21151;-66
2021/05/22 11:04:22;;;;;;;2.83;1.00;;;;;;;24.03;30.87;100432.01;1640905;84;21885;-68
2021/05/22 11:07:02;;;;;;;2.22;0.70;;;;;;;24.15;30.21;100443.47;1635429;84;21135;-70
2021/05/22 11:09:42;;;;;;;6.03;1.10;;;;;;;24.19;30.52;100432.09;1645030;84;21459;-67
2021/05/22 11:12:28;;;;;;;3.27;0.95;;;;;;;24.24;29.71;100436.80;1669770;84;22320;-69
2021/05/22 11:14:53;;;;;;;2.95;0.93;;;;;;;24.22;29.93;100427.61;1623825;86;21126;-66
2021/05/22 11:17:26;;;;;;;2.20;0.85;;;;;;;24.30;30.79;100423.87;1663124;84;21149;-69
2021/05/22 11:20:09;;;;;;;2.70;0.85;;;;;;;24.37;30.65;100417.13;1675016;84;22380;-67
2021/05/22 11:22:45;;;;;;;1.98;0.60;;;;;;;24.42;28.33;100416.78;1673996;83;21514;-68
2021/05/22 11:25:18;;;;;;;3.62;0.88;;;;;;;24.40;28.56;100411.32;1708423;81;21076;-71
2021/05/22 11:27:56;;;;;;;3.27;0.80;;;;;;;24.40;29.58;100416.70;1713651;81;21097;-69
2021/05/22 11:30:33;;;;;;;3.72;0.95;;;;;;;24.50;27.62;100410.34;1715172;81;21113;-67
2021/05/22 11:33:10;;;;;;;1.90;0.70;;;;;;;24.48;26.90;100415.12;1721180;81;21108;-68
2021/05/22 11:35:44;;;;;;;2.98;0.88;;;;;;;24.42;26.86;100420.00;1713944;81;21111;-68